Time;durP1;ratioP1;P1;durP2;ratioP2;P2;SDS_P1;SDS_P2;PMS_P1;PMS_P2;Temp;Humidity;BMP_temperature;BMP_pressure;BME280_temperature;BME280_humidity;BME280_pressure;Samples;Min_cycle;Max_cycle;Signal;HPM_P1;HPM_P2
2022/05/02 00:02:24;;;;;;;0.98;0.45;;;7.30;99.90;;;;;;4973494;28;20054;-66
2022/05/02 00:04:50;;;;;;;1.13;0.50;;;7.30;99.90;;;;;;4973144;28;20026;-67
2022/05/02 00:07:16;;;;;;;2.70;0.63;;;7.30;99.90;;;;;;4973001;28;20515;-66
2022/05/02 00:09:42;;;;;;;0.43;0.43;;;7.30;99.90;;;;;;4973157;28;20062;-66
2022/05/02 00:12:08;;;;;;;0.90;0.50;;;7.40;99.90;;;;;;4972973;28;20034;-66
2022/05/02 00:14:34;;;;;;;0.60;0.60;;;7.40;99.90;;;;;;4973045;28;20118;-66
2022/05/02 00:16:59;;;;;;;0.65;0.43;;;7.30;99.90;;;;;;4972891;28;20473;-66
2022/05/02 00:19:25;;;;;;;1.23;0.60;;;7.30;99.90;;;;;;4973070;28;20031;-66
2022/05/02 00:21:51;;;;;;;0.50;0.50;;;7.30;99.90;;;;;;4939615;28;20027;-66
2022/05/02 00:24:16;;;;;;;1.85;0.60;;;7.20;99.90;;;;;;4955548;28;20026;-66
2022/05/02 00:26:42;;;;;;;0.50;0.50;;;7.20;99.90;;;;;;4972871;28;20031;-66
2022/05/02 00:29:08;;;;;;;0.80;0.50;;;7.30;99.90;;;;;;4972997;28;20462;-67
2022/05/02 00:31:34;;;;;;;0.47;0.47;;;7.30;99.90;;;;;;4972902;28;20465;-67
2022/05/02 00:34:00;;;;;;;0.55;0.50;;;7.30;99.90;;;;;;4972667;28;20445;-67
2022/05/02 00:36:26;;;;;;;0.85;0.57;;;7.30;99.90;;;;;;4972904;28;20027;-66
2022/05/02 00:38:52;;;;;;;0.50;0.50;;;7.30;99.90;;;;;;4972699;28;20515;-66
2022/05/02 00:41:19;;;;;;;0.55;0.40;;;7.30;99.90;;;;;;4972909;28;20035;-67
2022/05/02 00:43:45;;;;;;;0.50;0.50;;;7.30;99.90;;;;;;4972848;28;20483;-66
2022/05/02 00:46:22;;;;;;;0.43;0.43;;;7.30;99.90;;;;;;4972693;28;20129;-66
2022/05/02 00:48:48;;;;;;;2.97;0.65;;;7.20;99.90;;;;;;4972831;28;20027;-66
2022/05/02 00:51:14;;;;;;;2.08;0.60;;;7.30;99.90;;;;;;4972552;28;20037;-66
2022/05/02 00:53:41;;;;;;;0.45;0.45;;;7.20;99.90;;;;;;4972538;28;20118;-66
2022/05/02 00:56:07;;;;;;;0.50;0.50;;;7.20;99.90;;;;;;4956859;28;20490;-66
2022/05/02 00:58:35;;;;;;;0.50;0.50;;;7.20;99.90;;;;;;4976259;28;20041;-67
2022/05/02 01:01:01;;;;;;;1.55;0.70;;;7.30;99.90;;;;;;4976404;28;20027;-66
2022/05/02 01:03:27;;;;;;;0.93;0.50;;;7.20;99.70;;;;;;4976161;28;20030;-67
2022/05/02 01:08:37;;;;;;;0.50;0.45;;;7.20;99.70;;;;;;4976382;28;20065;-66
2022/05/02 01:11:03;;;;;;;0.40;0.40;;;7.30;99.60;;;;;;4975996;28;20050;-66
2022/05/02 01:13:45;;;;;;;0.50;0.50;;;7.20;99.30;;;;;;4975966;28;20030;-66
2022/05/02 01:16:15;;;;;;;10.43;1.20;;;7.30;99.20;;;;;;4976074;28;20027;-66
2022/05/02 01:18:45;;;;;;;0.77;0.40;;;7.20;99.00;;;;;;4976020;28;20077;-66
2022/05/02 01:21:14;;;;;;;;;;;7.20;99.00;;;;;;4976318;28;20110;-66
2022/05/02 01:23:40;;;;;;;0.70;0.50;;;7.20;99.20;;;;;;4976026;28;20465;-66
2022/05/02 01:26:06;;;;;;;0.90;0.40;;;7.20;98.70;;;;;;4975738;28;20031;-66
2022/05/02 01:28:39;;;;;;;0.50;0.50;;;7.20;98.60;;;;;;4955985;28;20027;-66
2022/05/02 01:31:05;;;;;;;0.60;0.60;;;7.20;98.50;;;;;;4941020;28;20110;-65
2022/05/02 01:33:31;;;;;;;0.55;0.55;;;7.10;98.30;;;;;;4937187;29;20123;-66
2022/05/02 01:35:56;;;;;;;0.40;0.38;;;7.10;98.20;;;;;;4937059;29;20071;-66
2022/05/02 01:38:22;;;;;;;4.80;1.55;;;7.20;98.10;;;;;;4936882;29;20471;-66
2022/05/02 01:40:48;;;;;;;0.63;0.50;;;7.20;98.00;;;;;;4937108;29;20030;-66
2022/05/02 01:43:13;;;;;;;1.55;0.68;;;7.20;97.90;;;;;;4936926;29;20016;-66
2022/05/02 01:45:39;;;;;;;1.20;0.47;;;7.20;97.70;;;;;;4936955;29;20476;-66
2022/05/02 01:48:05;;;;;;;2.42;0.50;;;7.20;97.60;;;;;;4936760;29;20106;-66
2022/05/02 01:50:31;;;;;;;2.40;0.50;;;7.20;97.50;;;;;;4936897;29;20111;-66
2022/05/02 01:52:57;;;;;;;0.70;0.50;;;7.20;97.40;;;;;;4936743;29;20523;-66
2022/05/02 01:55:22;;;;;;;1.25;0.50;;;7.20;97.30;;;;;;4937030;29;20388;-66
2022/05/02 01:57:48;;;;;;;0.63;0.55;;;7.20;97.20;;;;;;4936971;29;20090;-66
2022/05/02 02:00:14;;;;;;;0.93;0.60;;;7.20;97.10;;;;;;4936975;29;20028;-66
2022/05/02 02:02:40;;;;;;;0.75;0.57;;;7.20;96.90;;;;;;4936933;29;20102;-66
2022/05/02 02:07:50;;;;;;;1.30;0.57;;;7.30;96.80;;;;;;4936141;29;20047;-66
2022/05/02 02:10:16;;;;;;;2.42;0.70;;;7.20;96.60;;;;;;4919521;29;20035;-66
2022/05/02 02:12:41;;;;;;;1.30;0.73;;;7.20;96.70;;;;;;4936433;29;20031;-66
2022/05/02 02:15:08;;;;;;;0.73;0.40;;;7.20;96.60;;;;;;4936193;29;20095;-66
2022/05/02 02:17:33;;;;;;;1.48;0.50;;;7.20;96.50;;;;;;4936590;29;20074;-66
2022/05/02 02:19:59;;;;;;;0.50;0.50;;;7.20;96.30;;;;;;4936561;29;20106;-66
2022/05/02 02:22:25;;;;;;;2.78;0.60;;;7.30;96.20;;;;;;4936400;29;20672;-66
2022/05/02 02:56:20;;;;;;;1.48;0.50;;;7.30;95.70;;;;;;4936277;29;20488;-66
2022/05/02 02:58:46;;;;;;;1.13;0.70;;;7.40;95.70;;;;;;4935950;29;20035;-66
2022/05/02 03:01:12;;;;;;;1.35;0.60;;;7.30;95.70;;;;;;4935662;29;20041;-66
2022/05/02 03:37:17;;;;;;;6.40;0.70;;;7.40;95.60;;;;;;5699056;23;20070;-82
2022/05/02 03:39:43;;;;;;;4.70;0.80;;;7.40;95.70;;;;;;4992649;28;20030;-80
2022/05/02 03:42:09;;;;;;;5.97;0.70;;;7.40;95.90;;;;;;4992728;28;20420;-80
2022/05/02 03:44:34;;;;;;;1.88;0.60;;;7.40;96.00;;;;;;4992853;28;20033;-69
2022/05/02 03:47:00;;;;;;;7.30;0.70;;;7.40;96.10;;;;;;4992660;28;20436;-77
2022/05/02 03:49:26;;;;;;;0.60;0.60;;;7.40;96.60;;;;;;4992566;28;20030;-77
2022/05/02 03:51:51;;;;;;;1.85;0.90;;;7.50;96.70;;;;;;4992733;28;20030;-73
2022/05/02 03:54:17;;;;;;;4.13;0.70;;;7.50;96.80;;;;;;4992662;28;20389;-73
2022/05/02 03:56:43;;;;;;;0.52;0.52;;;7.50;97.10;;;;;;4992740;28;20025;-73
2022/05/02 03:59:09;;;;;;;2.15;0.60;;;7.50;97.40;;;;;;4992377;28;20027;-76
2022/05/02 04:01:40;;;;;;;4.88;1.10;;;7.50;97.70;;;;;;4992692;28;20556;-76
2022/05/02 04:04:06;;;;;;;6.32;0.60;;;7.50;97.90;;;;;;4975715;28;20050;-76
2022/05/02 04:06:32;;;;;;;3.63;1.30;;;7.60;98.00;;;;;;4992507;28;20106;-76
2022/05/02 04:08:58;;;;;;;3.65;1.02;;;7.60;98.10;;;;;;4992635;28;20030;-76
2022/05/02 04:11:23;;;;;;;3.35;0.73;;;7.60;98.10;;;;;;4992321;28;20045;-76
2022/05/02 04:13:50;;;;;;;4.68;0.60;;;7.60;98.10;;;;;;4992574;28;20042;-76
2022/05/02 04:16:15;;;;;;;2.35;0.60;;;7.60;98.10;;;;;;4992278;28;20080;-76
2022/05/02 04:18:41;;;;;;;2.67;0.77;;;7.60;98.00;;;;;;4992289;28;20022;-74
2022/05/02 04:21:07;;;;;;;6.85;0.68;;;7.60;97.90;;;;;;4992258;28;20027;-74
2022/05/02 04:23:33;;;;;;;9.07;1.15;;;7.70;97.80;;;;;;4992255;28;20030;-75
2022/05/02 04:25:59;;;;;;;4.03;0.50;;;7.70;97.80;;;;;;4974933;28;20025;-74
2022/05/02 04:28:25;;;;;;;7.63;0.80;;;7.70;97.80;;;;;;4992235;28;20026;-74
2022/05/02 04:30:50;;;;;;;1.45;0.60;;;7.80;97.70;;;;;;4993627;28;20018;-76
2022/05/02 04:33:16;;;;;;;8.52;0.90;;;7.70;98.00;;;;;;4995893;28;20500;-73
2022/05/02 04:35:42;;;;;;;5.75;0.68;;;7.80;98.00;;;;;;4978691;28;20033;-75
2022/05/02 04:38:07;;;;;;;5.45;0.50;;;7.80;97.90;;;;;;4995577;28;20580;-89
2022/05/02 04:40:33;;;;;;;1.55;0.50;;;7.80;97.90;;;;;;4996000;28;20540;-79
2022/05/02 04:42:59;;;;;;;3.45;1.10;;;7.80;97.90;;;;;;4995982;28;20027;-79
2022/05/02 04:45:24;;;;;;;7.13;0.70;;;8.40;99.90;;;;;;4996498;28;20035;-84
2022/05/02 04:47:50;;;;;;;1.98;0.73;;;8.70;98.30;;;;;;4996015;28;20027;-73
2022/05/02 04:50:16;;;;;;;6.15;0.93;;;8.50;97.10;;;;;;4994878;28;20030;-68
2022/05/02 04:52:42;;;;;;;3.15;0.68;;;8.30;97.80;;;;;;4986315;28;20449;-74
2022/05/02 04:55:08;;;;;;;1.73;0.70;;;8.20;99.10;;;;;;4989438;28;20080;-77
2022/05/02 04:57:34;;;;;;;4.72;0.80;;;8.10;99.00;;;;;;4988363;28;20525;-74
2022/05/02 04:59:59;;;;;;;2.42;0.63;;;8.10;99.30;;;;;;4992185;28;20030;-72
2022/05/02 05:02:25;;;;;;;2.00;0.70;;;8.10;98.70;;;;;;4984387;28;20027;-75
2022/05/02 05:04:51;;;;;;;3.95;0.80;;;8.10;99.20;;;;;;4982106;28;20030;-73
2022/05/02 05:07:17;;;;;;;6.40;0.90;;;8.10;98.90;;;;;;4975558;28;20119;-74
2022/05/02 05:09:42;;;;;;;3.25;0.60;;;8.10;97.70;;;;;;4993898;28;20567;-72
2022/05/02 05:12:26;;;;;;;3.85;1.17;;;8.10;97.40;;;;;;4995437;28;20041;-73
2022/05/02 05:18:36;;;;;;;8.75;0.93;;;8.10;96.90;;;;;;4995419;28;20067;-75
2022/05/02 05:21:39;;;;;;;4.70;0.80;;;8.10;96.60;;;;;;4995248;28;20113;-75
2022/05/02 05:24:38;;;;;;;2.67;0.77;;;8.10;96.40;;;;;;4994532;28;20130;-75
2022/05/02 05:27:10;;;;;;;4.78;0.82;;;8.10;96.10;;;;;;4993127;28;20113;-75
2022/05/02 05:29:56;;;;;;;3.63;1.00;;;8.10;95.80;;;;;;4995100;28;20053;-75
2022/05/02 05:32:44;;;;;;;12.00;1.30;;;8.10;95.50;;;;;;4995030;28;20030;-75
2022/05/02 05:35:10;;;;;;;4.47;0.60;;;8.10;95.50;;;;;;4994839;28;20362;-75
2022/05/02 05:37:45;;;;;;;37.13;1.95;;;8.20;95.30;;;;;;4994728;28;20050;-75
2022/05/02 05:40:29;;;;;;;3.20;0.60;;;8.20;95.20;;;;;;4994989;28;20101;-75
2022/05/02 05:43:09;;;;;;;9.15;1.25;;;8.20;95.00;;;;;;4994035;28;20657;-75
2022/05/02 05:45:37;;;;;;;8.90;1.08;;;8.20;95.10;;;;;;4977519;28;20034;-74
2022/05/02 05:48:34;;;;;;;3.15;0.80;;;8.30;94.50;;;;;;4994756;28;20045;-74
2022/05/02 05:51:09;;;;;;;7.72;0.70;;;8.30;94.70;;;;;;4994943;28;20402;-72
2022/05/02 05:54:08;;;;;;;6.35;0.93;;;8.40;94.50;;;;;;4994865;28;20060;-73
2022/05/02 05:56:40;;;;;;;4.80;0.57;;;8.40;95.00;;;;;;4939471;29;20032;-73
2022/05/02 05:59:17;;;;;;;4.85;0.85;;;8.50;96.40;;;;;;4955800;29;20027;-74
2022/05/02 06:02:17;;;;;;;6.82;0.90;;;8.60;95.60;;;;;;4956414;28;20035;-73
2022/05/02 06:04:43;;;;;;;12.55;1.30;;;8.70;95.20;;;;;;4994053;28;20030;-71
2022/05/02 06:07:11;;;;;;;18.83;1.30;;;8.70;94.50;;;;;;4993387;28;20077;-74
2022/05/02 06:09:42;;;;;;;3.78;0.85;;;8.70;94.00;;;;;;4993784;28;20033;-69
2022/05/02 06:12:13;;;;;;;68.38;4.28;;;8.70;93.70;;;;;;4974492;28;20505;-70
2022/05/02 06:20:16;;;;;;;15.68;1.20;;;9.20;93.00;;;;;;4975091;28;20157;-72
2022/05/02 06:22:42;;;;;;;10.18;0.82;;;9.60;91.90;;;;;;4983976;28;20027;-74
2022/05/02 06:25:09;;;;;;;4.20;0.65;;;9.70;90.70;;;;;;4994018;28;20105;-74
2022/05/02 06:27:39;;;;;;;2.88;0.70;;;9.80;90.20;;;;;;4994397;28;20030;-77
2022/05/02 06:30:05;;;;;;;9.33;0.67;;;9.80;89.70;;;;;;4994187;28;20037;-72
2022/05/02 06:32:35;;;;;;;8.18;1.08;;;9.80;88.80;;;;;;4993975;28;20026;-74
2022/05/02 06:35:01;;;;;;;7.47;1.50;;;9.80;88.60;;;;;;4994073;28;20401;-73
2022/05/02 06:38:01;;;;;;;14.57;1.00;;;10.10;88.90;;;;;;4993429;28;20293;-76
2022/05/02 06:40:41;;;;;;;16.27;1.70;;;10.60;87.10;;;;;;4981729;28;20489;-78
2022/05/02 06:43:26;;;;;;;17.60;1.33;;;11.10;85.90;;;;;;4988855;28;20086;-77
2022/05/02 06:46:16;;;;;;;2.47;0.77;;;11.30;82.80;;;;;;4987359;28;20367;-78
2022/05/02 06:48:46;;;;;;;15.20;0.90;;;11.50;81.20;;;;;;4993371;28;20022;-82
2022/05/02 06:51:21;;;;;;;14.93;0.70;;;11.60;81.10;;;;;;4993040;28;20087;-78
2022/05/02 06:54:17;;;;;;;11.57;1.15;;;11.90;79.30;;;;;;4976113;28;20483;-80
2022/05/02 06:56:46;;;;;;;5.57;0.77;;;12.00;77.80;;;;;;4986034;28;20105;-79
2022/05/02 06:59:29;;;;;;;4.80;0.45;;;12.10;77.80;;;;;;4967672;28;20018;-73
2022/05/02 07:01:59;;;;;;;4.18;0.68;;;12.10;75.60;;;;;;4975143;28;20137;-75
2022/05/02 07:04:48;;;;;;;1.97;0.80;;;12.10;76.10;;;;;;4992688;28;20489;-72
2022/05/02 07:08:05;;;;;;;0.68;0.47;;;12.10;75.50;;;;;;4992911;28;20033;-73
2022/05/02 07:10:41;;;;;;;1.50;0.50;;;12.10;74.90;;;;;;4943144;28;20030;-72
2022/05/02 07:13:21;;;;;;;3.13;0.60;;;12.20;74.80;;;;;;4993071;28;20065;-73
2022/05/02 07:15:55;;;;;;;0.40;0.40;;;12.30;74.20;;;;;;4992824;28;20485;-72
2022/05/02 07:18:30;;;;;;;2.97;0.55;;;12.40;73.50;;;;;;4975200;28;20470;-70
2022/05/02 07:21:15;;;;;;;5.95;0.80;;;12.70;80.10;;;;;;4993063;28;20544;-70
2022/05/02 07:23:58;;;;;;;7.88;0.65;;;13.20;79.40;;;;;;4992890;28;20068;-68
2022/05/02 07:26:26;;;;;;;5.88;0.60;;;13.70;81.40;;;;;;4992848;28;20033;-72
2022/05/02 07:28:55;;;;;;;2.53;0.50;;;13.70;71.70;;;;;;4993037;28;20079;-76
2022/05/02 07:31:24;;;;;;;7.88;0.40;;;13.50;70.60;;;;;;4989467;28;20026;-75
2022/05/02 07:33:53;;;;;;;1.67;0.40;;;13.30;69.90;;;;;;4984297;28;20402;-74
2022/05/02 07:36:23;;;;;;;12.80;1.25;;;13.20;70.00;;;;;;4978631;28;20151;-74
2022/05/02 07:39:03;;;;;;;6.90;0.90;;;13.40;71.70;;;;;;4988512;28;20060;-73
2022/05/02 07:41:29;;;;;;;17.33;1.10;;;13.50;69.20;;;;;;4983628;28;20043;-72
2022/05/02 07:44:10;;;;;;;27.52;0.93;;;13.60;71.40;;;;;;4973739;28;20031;-72
2022/05/02 07:46:42;;;;;;;33.30;1.50;;;13.50;63.50;;;;;;4973135;28;20571;-72
2022/05/02 07:49:10;;;;;;;14.07;0.70;;;12.80;64.20;;;;;;4971821;28;20031;-72
2022/05/02 07:51:47;;;;;;;8.73;0.85;;;12.30;67.80;;;;;;4973139;28;20026;-72
2022/05/02 07:54:18;;;;;;;6.45;0.40;;;11.70;70.00;;;;;;4972841;28;20031;-72
2022/05/02 07:56:50;;;;;;;1.83;0.40;;;11.10;77.30;;;;;;4973274;28;20023;-72
2022/05/02 07:59:18;;;;;;;0.55;0.30;;;10.50;83.10;;;;;;4972988;28;20142;-73
2022/05/02 08:01:44;;;;;;;0.30;0.30;;;10.20;84.90;;;;;;4976184;28;20388;-72
2022/05/02 08:04:14;;;;;;;1.35;0.30;;;10.00;86.10;;;;;;4992283;28;20034;-72
2022/05/02 08:06:55;;;;;;;0.60;0.40;;;9.80;86.70;;;;;;4974284;28;20023;-71
2022/05/02 08:09:56;;;;;;;0.20;0.20;;;9.60;87.50;;;;;;4992174;28;20448;-71
2022/05/02 08:12:40;;;;;;;0.40;0.40;;;9.50;88.60;;;;;;4974205;28;20114;-71
2022/05/02 08:15:24;;;;;;;0.52;0.52;;;9.30;89.40;;;;;;4992111;28;20078;-71
2022/05/02 08:17:50;;;;;;;0.45;0.40;;;9.30;90.50;;;;;;4992027;28;20018;-71
2022/05/02 08:20:37;;;;;;;0.40;0.40;;;9.20;91.40;;;;;;4991897;28;20081;-71
2022/05/02 08:29:33;;;;;;;0.45;0.45;;;9.70;98.50;;;;;;4972475;28;20042;-69
2022/05/02 08:32:37;;;;;;;0.50;0.40;;;9.90;96.00;;;;;;4990904;28;20022;-66
2022/05/02 08:35:47;;;;;;;0.65;0.40;;;9.60;97.70;;;;;;4991735;28;20053;-66
2022/05/02 08:38:41;;;;;;;0.45;0.45;;;9.40;99.10;;;;;;4991667;28;20046;-67
2022/05/02 08:41:29;;;;;;;0.38;0.38;;;9.20;99.90;;;;;;4992186;28;20105;-66
2022/05/02 08:44:13;;;;;;;1.50;0.47;;;8.90;99.90;;;;;;4992034;28;20027;-66
2022/05/02 08:46:52;;;;;;;1.40;0.50;;;8.60;99.60;;;;;;4991956;28;20033;-66
2022/05/02 08:49:59;;;;;;;2.70;0.50;;;8.30;99.90;;;;;;4991933;28;20102;-67
2022/05/02 08:52:36;;;;;;;2.40;0.43;;;8.20;99.90;;;;;;4958615;28;20544;-68
2022/05/02 08:55:37;;;;;;;3.95;0.65;;;7.80;99.90;;;;;;4990749;28;20034;-67
2022/05/02 08:58:52;;;;;;;3.20;0.47;;;7.60;99.90;;;;;;4992123;28;20102;-67
2022/05/02 09:01:40;;;;;;;3.40;0.68;;;7.60;99.90;;;;;;4991834;28;20038;-68
2022/05/02 09:04:42;;;;;;;0.50;0.38;;;7.60;99.90;;;;;;4992165;28;20027;-67
2022/05/02 09:07:34;;;;;;;1.85;0.60;;;7.80;99.90;;;;;;4992043;28;20022;-68
2022/05/02 09:10:14;;;;;;;2.28;0.80;;;8.00;99.90;;;;;;4974209;28;20102;-68
2022/05/02 09:13:01;;;;;;;1.63;0.60;;;8.10;99.90;;;;;;4991799;28;20049;-69
2022/05/02 09:15:54;;;;;;;4.63;0.80;;;8.20;99.90;;;;;;4991582;28;20034;-68
2022/05/02 09:18:38;;;;;;;1.05;0.32;;;8.30;99.90;;;;;;4993240;28;20026;-68
2022/05/02 09:21:44;;;;;;;1.38;0.52;;;8.50;99.90;;;;;;4995316;28;20034;-68
2022/05/02 09:24:47;;;;;;;3.13;0.73;;;8.50;99.90;;;;;;4994911;28;20026;-69
2022/05/02 09:27:26;;;;;;;2.65;0.63;;;8.70;99.90;;;;;;4995420;28;20026;-68
2022/05/02 09:30:12;;;;;;;1.38;0.47;;;8.70;99.90;;;;;;4995347;28;20033;-68
2022/05/02 09:32:53;;;;;;;2.53;0.55;;;8.80;99.90;;;;;;4994659;28;20488;-73
2022/05/02 09:35:30;;;;;;;0.88;0.60;;;8.90;99.90;;;;;;4994355;28;20053;-73
2022/05/02 09:37:59;;;;;;;1.05;0.47;;;9.10;99.90;;;;;;4994737;28;20108;-73
2022/05/02 09:40:36;;;;;;;4.25;0.85;;;9.30;99.90;;;;;;4985015;28;20520;-69
2022/05/02 09:49:33;;;;;;;1.60;0.80;;;9.50;98.40;;;;;;4961193;28;20026;-71
2022/05/02 09:49:57;;;;;;;1.17;0.70;;;9.90;94.30;;;;;;4973448;28;20444;-71
2022/05/02 09:52:41;;;;;;;3.70;0.80;;;10.10;92.70;;;;;;4968031;28;20023;-70
2022/05/02 09:58:00;;;;;;;3.03;0.70;;;10.20;89.60;;;;;;4976038;28;20097;-74
2022/05/02 10:03:39;;;;;;;1.50;0.60;;;10.20;83.60;;;;;;4977013;28;20412;-75
2022/05/02 10:06:17;;;;;;;4.97;0.60;;;10.20;77.00;;;;;;4974535;28;20022;-69
2022/05/02 10:08:57;;;;;;;1.10;0.55;;;10.20;72.00;;;;;;4974235;28;20031;-74
2022/05/02 10:12:07;;;;;;;2.28;0.80;;;10.30;69.00;;;;;;4973981;28;20363;-73
2022/05/02 10:14:42;;;;;;;5.07;1.13;;;10.40;68.30;;;;;;4919735;28;20046;-73
2022/05/02 10:17:17;;;;;;;5.72;0.80;;;10.50;69.00;;;;;;4973922;28;20062;-73
2022/05/02 10:20:08;;;;;;;3.33;0.77;;;10.50;68.50;;;;;;4974225;28;20035;-72
2022/05/02 10:23:02;;;;;;;8.55;1.10;;;10.50;66.70;;;;;;4974705;28;20026;-76
2022/05/02 10:25:36;;;;;;;1.52;0.60;;;11.00;73.00;;;;;;4974081;28;20065;-73
2022/05/02 10:28:21;;;;;;;5.10;1.20;;;11.20;70.10;;;;;;4973916;28;20022;-75
2022/05/02 10:31:13;;;;;;;3.53;0.82;;;11.60;74.90;;;;;;4956742;28;20085;-75
2022/05/02 10:33:49;;;;;;;3.95;0.90;;;11.90;65.40;;;;;;4956757;28;20058;-74
2022/05/02 10:36:15;;;;;;;5.72;0.90;;;11.70;62.90;;;;;;4974211;28;20026;-73
2022/05/02 10:38:53;;;;;;;7.20;0.90;;;11.50;61.70;;;;;;4973795;28;20059;-73
2022/05/02 10:41:30;;;;;;;2.95;0.75;;;11.40;62.50;;;;;;4974054;28;20023;-72
2022/05/02 10:44:04;;;;;;;9.30;1.20;;;11.40;63.20;;;;;;4954841;29;20031;-72
2022/05/02 10:46:31;;;;;;;3.78;0.82;;;11.40;62.60;;;;;;4962548;28;20041;-71
2022/05/02 10:49:06;;;;;;;2.70;0.95;;;11.40;62.90;;;;;;4973663;28;20031;-71
2022/05/02 10:51:40;;;;;;;4.85;0.93;;;11.50;64.00;;;;;;4973485;28;20026;-71
2022/05/02 10:54:16;;;;;;;18.92;1.23;;;11.40;61.90;;;;;;4973600;28;20050;-71
2022/05/02 10:56:53;;;;;;;5.97;1.33;;;11.40;61.70;;;;;;4973534;28;20426;-71
2022/05/02 10:59:23;;;;;;;4.18;0.65;;;11.40;61.40;;;;;;4973396;28;20027;-72
2022/05/02 11:02:06;;;;;;;8.27;0.90;;;11.40;62.40;;;;;;4973308;28;20031;-72
2022/05/02 11:05:03;;;;;;;3.88;0.98;;;11.40;61.70;;;;;;4970639;28;20041;-73
2022/05/02 11:07:35;;;;;;;3.17;0.95;;;11.30;61.80;;;;;;4973252;28;20041;-73
2022/05/02 11:10:12;;;;;;;4.13;0.80;;;11.20;62.80;;;;;;4973090;28;20046;-73
2022/05/02 11:12:45;;;;;;;2.55;0.90;;;11.20;63.30;;;;;;4971877;28;20023;-74
2022/05/02 11:15:16;;;;;;;2.33;0.80;;;11.30;63.90;;;;;;4972712;28;20330;-73
2022/05/02 11:21:04;;;;;;;3.70;0.90;;;11.30;62.80;;;;;;4932191;28;20073;-72
2022/05/02 11:24:01;;;;;;;3.70;0.95;;;11.20;61.70;;;;;;4955248;28;20444;-72
2022/05/02 11:26:43;;;;;;;6.13;0.93;;;11.00;60.10;;;;;;4972597;28;20058;-71
2022/05/02 11:29:22;;;;;;;5.20;1.05;;;10.90;60.90;;;;;;4972337;28;20034;-72
2022/05/02 11:32:01;;;;;;;12.60;1.05;;;10.80;60.20;;;;;;4973519;28;20061;-80
2022/05/02 11:34:58;;;;;;;2.72;0.80;;;10.60;61.90;;;;;;4973137;28;20048;-76
2022/05/02 11:38:00;;;;;;;2.33;0.52;;;10.30;67.30;;;;;;4980129;28;20125;-73
2022/05/02 11:40:35;;;;;;;0.57;0.40;;;10.00;72.70;;;;;;4991802;28;20110;-72
2022/05/02 11:43:03;;;;;;;1.02;0.40;;;9.90;71.90;;;;;;4992550;28;20225;-73
2022/05/02 11:45:50;;;;;;;1.05;0.30;;;9.80;71.90;;;;;;4992169;28;20103;-71
2022/05/02 11:48:50;;;;;;;6.13;0.80;;;9.70;73.00;;;;;;4992136;28;20022;-71
2022/05/02 11:51:43;;;;;;;2.25;0.70;;;10.20;79.30;;;;;;4990916;28;20033;-71
2022/05/02 11:54:27;;;;;;;5.30;0.88;;;10.50;71.10;;;;;;4973704;28;20047;-71
2022/05/02 11:57:04;;;;;;;4.05;0.52;;;10.30;69.90;;;;;;4972581;28;20033;-71
2022/05/02 12:00:07;;;;;;;3.67;0.50;;;10.10;70.20;;;;;;4972840;28;20510;-72
2022/05/02 12:02:38;;;;;;;5.50;0.77;;;10.10;71.20;;;;;;4948426;28;20027;-75
2022/05/02 12:05:27;;;;;;;2.95;0.63;;;10.20;69.60;;;;;;4972841;28;20118;-67
2022/05/02 12:07:57;;;;;;;6.68;0.73;;;10.10;68.70;;;;;;4975143;28;20023;-69
2022/05/02 12:10:48;;;;;;;1.38;0.40;;;9.90;67.90;;;;;;4972178;28;20478;-68
2022/05/02 12:13:18;;;;;;;6.13;0.65;;;9.80;67.80;;;;;;4982717;28;20027;-68
2022/05/02 12:16:07;;;;;;;2.60;0.50;;;9.90;68.30;;;;;;4992450;28;20050;-69
2022/05/02 12:18:46;;;;;;;7.78;0.60;;;9.90;67.50;;;;;;4992780;28;20445;-68
2022/05/02 12:21:18;;;;;;;2.38;0.47;;;9.90;64.90;;;;;;4992158;28;20030;-67
2022/05/02 12:23:44;;;;;;;1.65;0.43;;;9.80;64.70;;;;;;4991851;28;20498;-67
2022/05/02 12:26:20;;;;;;;3.03;0.60;;;9.80;65.30;;;;;;4992085;28;20023;-67
2022/05/02 12:28:48;;;;;;;1.08;0.45;;;9.90;63.60;;;;;;4992181;28;20027;-67
2022/05/02 12:31:17;;;;;;;9.43;0.63;;;9.90;62.30;;;;;;4992063;28;20046;-67
2022/05/02 12:33:46;;;;;;;5.28;0.88;;;9.90;60.40;;;;;;4992067;28;20049;-68
2022/05/02 12:36:17;;;;;;;11.23;1.70;;;9.80;61.50;;;;;;4992054;28;20018;-68
2022/05/02 12:39:03;;;;;;;1.85;0.50;;;9.40;70.50;;;;;;4977718;28;20586;-66
2022/05/02 12:41:30;;;;;;;2.97;0.40;;;8.90;72.40;;;;;;4971584;28;20094;-74
2022/05/02 12:44:25;;;;;;;0.30;0.30;;;8.50;73.70;;;;;;4972704;28;20231;-71
2022/05/02 12:46:53;;;;;;;0.68;0.50;;;8.10;76.90;;;;;;4971208;28;20609;-72
2022/05/02 12:49:26;;;;;;;1.48;0.40;;;7.70;78.90;;;;;;4973123;28;20031;-72
2022/05/02 12:51:54;;;;;;;0.88;0.35;;;7.60;80.40;;;;;;4974146;28;20055;-72
2022/05/02 12:54:26;;;;;;;0.25;0.25;;;7.50;82.50;;;;;;4976241;28;20034;-72
2022/05/02 13:02:51;;;;;;;2.00;0.80;;;7.70;90.40;;;;;;4976554;28;20505;-69
2022/05/02 13:05:20;;;;;;;4.03;0.50;;;7.90;90.70;;;;;;4976208;28;20553;-69
2022/05/02 13:07:51;;;;;;;3.00;0.50;;;8.00;90.60;;;;;;4995108;28;20053;-69
2022/05/02 13:10:26;;;;;;;2.92;0.40;;;8.00;90.20;;;;;;4985323;28;20165;-69
2022/05/02 13:13:08;;;;;;;2.00;0.65;;;8.00;90.10;;;;;;4989112;28;20682;-69
2022/05/02 13:15:36;;;;;;;2.45;0.47;;;8.10;90.50;;;;;;4992196;28;20092;-72
2022/05/02 13:18:05;;;;;;;6.95;0.60;;;8.20;89.70;;;;;;4995406;28;20365;-68
2022/05/02 13:20:31;;;;;;;2.28;0.60;;;8.20;88.40;;;;;;4988701;28;20030;-68
2022/05/02 13:23:12;;;;;;;7.38;0.60;;;8.20;87.30;;;;;;4972617;28;20031;-68
2022/05/02 13:26:00;;;;;;;;;;;8.30;86.20;;;;;;4974059;28;20085;-68
2022/05/02 13:28:58;;;;;;;1.15;0.50;;;8.40;83.50;;;;;;4975206;28;19973;-68
2022/05/02 13:31:59;;;;;;;1.65;0.40;;;8.60;80.90;;;;;;4964684;28;21170;-68
2022/05/02 13:34:31;;;;;;;4.22;0.52;;;8.60;77.20;;;;;;4974170;28;20046;-70
2022/05/02 13:37:22;;;;;;;2.53;0.40;;;8.60;76.20;;;;;;4974847;28;20054;-71
2022/05/02 13:40:11;;;;;;;1.10;0.40;;;8.60;75.40;;;;;;4935980;28;20035;-70
2022/05/02 13:42:57;;;;;;;2.08;0.30;;;8.70;75.30;;;;;;4974849;28;20462;-71
2022/05/02 13:45:44;;;;;;;2.75;0.55;;;8.80;75.20;;;;;;4974749;28;20058;-71
2022/05/02 13:48:40;;;;;;;0.70;0.38;;;8.90;74.30;;;;;;4974930;28;20027;-71
2022/05/02 13:51:18;;;;;;;0.98;0.40;;;9.00;74.30;;;;;;4946828;28;20102;-71
2022/05/02 13:53:57;;;;;;;2.17;0.45;;;9.10;73.30;;;;;;4974328;28;20482;-71
2022/05/02 13:56:48;;;;;;;1.27;0.30;;;9.10;70.90;;;;;;4973978;28;20030;-70
2022/05/02 13:59:29;;;;;;;0.70;0.30;;;9.00;69.00;;;;;;4972482;28;20482;-70
2022/05/02 14:02:29;;;;;;;0.70;0.35;;;8.90;69.60;;;;;;4974569;28;20023;-72
2022/05/02 14:05:02;;;;;;;;;;;8.60;72.70;;;;;;4974180;28;20023;-72
2022/05/02 14:07:29;;;;;;;1.35;0.40;;;8.30;77.60;;;;;;4974205;28;19961;-71
2022/05/02 14:09:59;;;;;;;0.20;0.20;;;7.90;76.70;;;;;;4974298;28;20517;-71
2022/05/02 14:12:35;;;;;;;0.30;0.30;;;7.60;75.20;;;;;;4974560;28;20039;-71
2022/05/02 14:15:00;;;;;;;1.20;0.28;;;7.30;74.00;;;;;;4976896;28;20122;-71
2022/05/02 14:20:22;;;;;;;2.05;0.57;;;7.20;70.20;;;;;;4982826;28;20027;-70
2022/05/02 14:23:07;;;;;;;0.68;0.30;;;7.30;70.50;;;;;;4974169;28;20033;-70
2022/05/02 14:25:34;;;;;;;0.63;0.40;;;7.30;70.90;;;;;;4971860;28;20109;-71
2022/05/02 14:28:21;;;;;;;3.20;0.40;;;7.50;70.40;;;;;;4974150;28;20023;-71
2022/05/02 14:30:48;;;;;;;1.55;0.40;;;7.70;70.10;;;;;;4973750;28;20390;-70
2022/05/02 14:33:38;;;;;;;1.17;0.30;;;7.70;69.50;;;;;;4973967;28;20453;-70
2022/05/02 14:36:08;;;;;;;4.77;0.60;;;7.70;69.60;;;;;;4973783;28;20061;-70
2022/05/02 14:38:37;;;;;;;8.93;0.30;;;7.70;70.40;;;;;;4973547;28;20051;-71
2022/05/02 14:41:05;;;;;;;2.30;0.43;;;7.70;70.20;;;;;;4973729;28;20051;-70
2022/05/02 14:43:31;;;;;;;4.50;0.60;;;7.70;70.60;;;;;;4973454;28;20118;-71
2022/05/02 14:45:57;;;;;;;1.00;0.30;;;7.70;70.80;;;;;;4993674;28;20371;-71
2022/05/02 14:48:23;;;;;;;0.70;0.30;;;7.70;70.80;;;;;;4994034;28;20029;-71
2022/05/02 14:51:00;;;;;;;7.03;0.40;;;7.80;71.00;;;;;;4993613;28;20053;-71
2022/05/02 14:53:33;;;;;;;2.55;0.30;;;7.80;71.10;;;;;;4993735;28;20113;-70
2022/05/02 14:55:58;;;;;;;6.45;0.70;;;7.80;70.70;;;;;;4993104;28;20488;-71
2022/05/02 14:58:31;;;;;;;7.03;0.30;;;7.70;70.50;;;;;;4993740;28;20027;-71
2022/05/02 15:01:02;;;;;;;3.97;0.52;;;7.60;71.10;;;;;;4993548;28;20034;-71
2022/05/02 15:03:31;;;;;;;2.88;0.30;;;7.40;73.60;;;;;;4993519;28;20026;-71
2022/05/02 15:05:58;;;;;;;0.20;0.20;;;7.20;76.80;;;;;;4975808;28;20474;-70
2022/05/02 15:08:36;;;;;;;2.83;0.35;;;6.90;79.80;;;;;;4993235;28;20386;-70
2022/05/02 15:11:32;;;;;;;6.38;0.70;;;6.60;80.20;;;;;;4982323;28;20029;-70
2022/05/02 15:14:07;;;;;;;7.28;2.42;;;6.60;84.40;;;;;;4973561;28;20033;-72
2022/05/02 15:16:57;;;;;;;0.50;0.50;;;6.90;95.70;;;;;;4976840;28;20040;-71
2022/05/02 15:19:56;;;;;;;5.88;1.30;;;7.60;87.90;;;;;;4970513;28;20019;-72
2022/05/02 15:22:33;;;;;;;1.40;1.07;;;7.30;84.70;;;;;;4918106;29;20035;-71
2022/05/02 15:25:12;;;;;;;0.52;0.43;;;7.00;84.70;;;;;;4954378;29;20023;-72
2022/05/02 15:36:40;;;;;;;1.80;0.90;;;7.00;85.40;;;;;;4973443;28;20038;-70